Terminal Aerodrome Forecast
Issued by NWS Springfield, MO

Home | Current Version | Previous Version | Text Only | Print | Product List | Glossary On
Versions: 1 2 3 4 5 6 7 8 9 10 11 12 13 14
000
FTUS43 KSGF 281731
TAFSGF
TAF
KSGF 281731Z 2818/2918 22014KT P6SM BKN150
     FM290000 22009KT P6SM SCT250
     FM290100 21006KT P6SM VCTS SCT250CB
     FM290400 21005KT P6SM SCT250
     FM291600 27006KT P6SM FEW200=

USA.gov is the U.S. government's official web portal to all federal, state and local government web resources and services.